createdAt,value
2019-03-27T00:01:09.154Z,-0.60
2019-03-27T00:03:36.016Z,-0.60
2019-03-27T00:06:02.847Z,-0.50
2019-03-27T00:08:30.822Z,-0.50
2019-03-27T00:10:58.395Z,-0.50
2019-03-27T00:13:25.166Z,-0.50
2019-03-27T00:15:51.934Z,-0.50
2019-03-27T00:18:18.877Z,-0.40
2019-03-27T00:20:45.843Z,-0.40
2019-03-27T00:23:12.855Z,-0.40
2019-03-27T00:25:40.097Z,-0.40
2019-03-27T00:28:06.837Z,-0.40
2019-03-27T00:30:33.641Z,-0.30
2019-03-27T00:33:00.490Z,-0.30
2019-03-27T00:35:27.443Z,-0.30
2019-03-27T00:37:54.328Z,-0.30
2019-03-27T00:40:21.178Z,-0.30
2019-03-27T00:42:48.055Z,-0.30
2019-03-27T00:45:25.770Z,-0.30
2019-03-27T00:47:41.903Z,-0.30
2019-03-27T00:50:08.959Z,-0.30
2019-03-27T00:52:35.806Z,-0.40
2019-03-27T00:55:02.801Z,-0.40
2019-03-27T00:57:29.613Z,-0.40
2019-03-27T00:59:56.676Z,-0.40
2019-03-27T01:02:23.629Z,-0.30
2019-03-27T01:04:51.217Z,-0.20
2019-03-27T01:07:18.102Z,-0.30
2019-03-27T01:09:45.254Z,-0.20
2019-03-27T01:12:12.014Z,-0.20
2019-03-27T01:14:38.739Z,-0.20
2019-03-27T01:17:05.957Z,-0.20
2019-03-27T01:19:32.757Z,-0.20
2019-03-27T01:21:59.649Z,-0.20
2019-03-27T01:24:26.614Z,-0.20
2019-03-27T01:26:53.648Z,-0.20
2019-03-27T01:29:20.571Z,-0.30
2019-03-27T01:31:48.045Z,-0.40
2019-03-27T01:34:15.169Z,-0.40
2019-03-27T01:36:42.334Z,-0.50
2019-03-27T01:39:10.010Z,-0.60
2019-03-27T01:41:36.790Z,-0.70
2019-03-27T01:44:03.757Z,-0.70
2019-03-27T01:46:30.684Z,-0.80
2019-03-27T01:48:57.637Z,-0.80
2019-03-27T01:51:25.178Z,-0.90
2019-03-27T01:53:52.320Z,-0.90
2019-03-27T01:56:19.128Z,-0.90
2019-03-27T01:58:45.942Z,-1.00
2019-03-27T02:01:13.476Z,-1.10
2019-03-27T02:03:41.392Z,-1.00
2019-03-27T02:06:08.222Z,-1.10
2019-03-27T02:08:35.007Z,-1.10
2019-03-27T02:11:01.796Z,-1.10
2019-03-27T02:13:29.757Z,-1.00
2019-03-27T02:16:06.357Z,-1.10
2019-03-27T02:18:23.430Z,-1.00
2019-03-27T02:20:50.953Z,-1.00
2019-03-27T02:23:17.717Z,-1.00
2019-03-27T02:25:44.459Z,-1.00
2019-03-27T02:28:11.216Z,-1.00
2019-03-27T02:30:37.965Z,-1.00
2019-03-27T02:33:05.568Z,-1.00
2019-03-27T02:35:32.387Z,-1.00
2019-03-27T02:38:04.804Z,-1.10
2019-03-27T02:40:31.841Z,-1.10
2019-03-27T02:42:58.632Z,-1.10
2019-03-27T02:45:25.484Z,-1.10
2019-03-27T02:47:52.253Z,-1.20
2019-03-27T02:50:19.222Z,-1.20
2019-03-27T02:52:46.127Z,-1.20
2019-03-27T02:55:12.910Z,-1.10
2019-03-27T02:57:39.635Z,-1.20
2019-03-27T03:00:07.460Z,-1.20
2019-03-27T03:02:34.245Z,-1.30
2019-03-27T03:05:01.080Z,-1.30
2019-03-27T03:07:28.060Z,-1.30
2019-03-27T03:09:54.859Z,-1.40
2019-03-27T03:12:21.677Z,-1.50
2019-03-27T03:14:48.565Z,-1.50
2019-03-27T03:17:16.030Z,-1.50
2019-03-27T03:19:43.013Z,-1.70
2019-03-27T03:22:10.574Z,-1.70
2019-03-27T03:24:37.395Z,-1.80
2019-03-27T03:27:04.963Z,-1.70
2019-03-27T03:29:32.490Z,-1.70
2019-03-27T03:31:59.317Z,-1.70
2019-03-27T03:34:26.177Z,-1.70
2019-03-27T03:36:53.059Z,-1.60
2019-03-27T03:39:20.581Z,-1.50
2019-03-27T03:41:47.402Z,-1.50
2019-03-27T03:44:14.127Z,-1.40
2019-03-27T03:46:58.111Z,-1.40
2019-03-27T03:49:07.786Z,-1.30
2019-03-27T03:51:35.341Z,-1.10
2019-03-27T03:54:02.261Z,-1.20
2019-03-27T03:56:29.020Z,-1.10
2019-03-27T03:58:55.893Z,-1.00
2019-03-27T04:01:23.464Z,-0.90
2019-03-27T04:03:50.261Z,-0.90
2019-03-27T04:06:17.298Z,-0.90
2019-03-27T04:08:44.103Z,-0.90
2019-03-27T04:11:10.878Z,-0.90
2019-03-27T04:13:37.757Z,-0.90
2019-03-27T04:16:04.570Z,-0.90
2019-03-27T04:18:31.344Z,-0.90
2019-03-27T04:20:58.156Z,-0.90
2019-03-27T04:23:24.903Z,-0.80
2019-03-27T04:26:09.163Z,-0.70
2019-03-27T04:28:20.044Z,-0.60
2019-03-27T04:30:46.855Z,-0.60
2019-03-27T04:33:13.681Z,-0.60
2019-03-27T04:35:40.460Z,-0.50
2019-03-27T04:38:09.134Z,-0.40
2019-03-27T04:40:36.704Z,-0.40
2019-03-27T04:43:03.670Z,-0.40
2019-03-27T04:45:30.477Z,-0.40
2019-03-27T04:47:57.235Z,-0.30
2019-03-27T04:50:24.745Z,-0.20
2019-03-27T04:52:51.501Z,-0.20
2019-03-27T04:55:18.236Z,-0.20
2019-03-27T04:57:45.112Z,-0.10
2019-03-27T05:00:12.683Z,-0.10
2019-03-27T05:02:39.696Z,-0.10
2019-03-27T05:05:06.630Z,-0.10
2019-03-27T05:07:48.221Z,0.00
2019-03-27T05:10:15.929Z,0.10
2019-03-27T05:12:43.442Z,0.10
2019-03-27T05:15:10.311Z,0.10
2019-03-27T05:17:45.843Z,0.30
2019-03-27T05:20:05.820Z,0.40
2019-03-27T05:22:32.585Z,0.40
2019-03-27T05:25:00.362Z,0.40
2019-03-27T05:27:26.991Z,0.40
2019-03-27T05:29:53.872Z,0.50
2019-03-27T05:32:22.145Z,0.50
2019-03-27T05:34:50.719Z,0.60
2019-03-27T05:37:18.369Z,0.80
2019-03-27T05:39:45.267Z,0.80
2019-03-27T05:42:12.350Z,0.80
2019-03-27T05:44:39.026Z,0.90
2019-03-27T05:47:05.780Z,1.10
2019-03-27T05:49:33.190Z,1.20
2019-03-27T05:51:59.949Z,1.20
2019-03-27T05:54:26.630Z,1.20
2019-03-27T05:56:53.371Z,1.30
2019-03-27T05:59:20.054Z,1.30
2019-03-27T06:01:46.813Z,1.50
2019-03-27T06:04:14.351Z,1.70
2019-03-27T06:06:41.133Z,1.80
2019-03-27T06:09:08.582Z,2.00
2019-03-27T06:11:35.640Z,2.00
2019-03-27T06:14:03.901Z,2.00
2019-03-27T06:16:30.743Z,2.10
2019-03-27T06:18:58.229Z,2.30
2019-03-27T06:21:24.974Z,2.30
2019-03-27T06:23:51.658Z,2.40
2019-03-27T06:26:18.372Z,2.30
2019-03-27T06:28:45.102Z,2.30
2019-03-27T06:31:12.489Z,2.40
2019-03-27T06:33:39.208Z,2.30
2019-03-27T06:36:05.907Z,2.50
2019-03-27T06:38:33.342Z,2.90
2019-03-27T06:41:00.243Z,2.80
2019-03-27T06:43:27.195Z,3.10
2019-03-27T06:45:58.186Z,2.90
2019-03-27T06:48:26.507Z,2.90
2019-03-27T06:50:50.482Z,3.60
2019-03-27T06:53:17.332Z,3.60
2019-03-27T06:55:44.070Z,3.50
2019-03-27T06:58:10.792Z,3.60
2019-03-27T07:00:37.652Z,3.60
2019-03-27T07:03:04.493Z,3.70
2019-03-27T07:05:31.438Z,3.80
2019-03-27T07:07:59.177Z,4.70
2019-03-27T07:10:25.999Z,5.10
2019-03-27T07:12:52.746Z,5.70
2019-03-27T07:15:19.610Z,5.70
2019-03-27T07:17:46.330Z,5.00
2019-03-27T07:20:13.107Z,5.70
2019-03-27T07:22:39.894Z,6.40
2019-03-27T07:25:07.384Z,7.40
2019-03-27T07:27:34.295Z,7.40
2019-03-27T07:30:01.257Z,7.80
2019-03-27T07:32:27.974Z,8.30
2019-03-27T07:34:54.676Z,9.30
2019-03-27T07:37:21.399Z,8.10
2019-03-27T07:39:48.111Z,7.90
2019-03-27T07:42:15.116Z,7.80
2019-03-27T07:44:41.791Z,7.00
2019-03-27T07:47:09.189Z,8.50
2019-03-27T07:49:35.949Z,8.50
2019-03-27T07:52:02.682Z,9.40
2019-03-27T07:54:29.397Z,9.30
2019-03-27T07:56:56.140Z,9.40
2019-03-27T07:59:22.854Z,8.40
2019-03-27T08:01:50.313Z,10.00
2019-03-27T08:04:17.133Z,10.00
2019-03-27T08:06:43.832Z,11.00
2019-03-27T08:09:10.553Z,11.50
2019-03-27T08:11:37.493Z,10.80
2019-03-27T08:14:04.270Z,9.80
2019-03-27T08:16:31.108Z,9.70
2019-03-27T08:19:07.332Z,8.70
2019-03-27T08:21:24.659Z,8.90
2019-03-27T08:23:51.481Z,9.00
2019-03-27T08:26:18.236Z,9.10
2019-03-27T08:28:45.685Z,9.00
2019-03-27T08:31:13.426Z,8.60
2019-03-27T08:33:40.266Z,8.60
2019-03-27T08:36:06.932Z,8.70
2019-03-27T08:38:34.389Z,9.30
2019-03-27T08:41:01.893Z,9.80
2019-03-27T08:43:29.451Z,10.80
2019-03-27T08:45:56.216Z,10.80
2019-03-27T08:48:22.941Z,11.20
2019-03-27T08:50:50.391Z,10.70
2019-03-27T08:53:17.115Z,10.70
2019-03-27T08:55:43.823Z,11.50
2019-03-27T08:58:11.391Z,10.80
2019-03-27T09:00:48.455Z,10.80
2019-03-27T09:03:15.261Z,10.80
2019-03-27T09:05:42.282Z,10.50
2019-03-27T09:08:09.114Z,11.30
2019-03-27T09:10:36.801Z,12.20
2019-03-27T09:13:03.702Z,13.30
2019-03-27T09:15:31.166Z,14.60
2019-03-27T09:17:58.680Z,15.30
2019-03-27T09:20:25.390Z,15.20
2019-03-27T09:22:52.163Z,14.40
2019-03-27T09:25:18.875Z,14.70
2019-03-27T09:27:45.741Z,13.90
2019-03-27T09:30:12.625Z,13.40
2019-03-27T09:32:40.239Z,11.40
2019-03-27T09:35:07.081Z,11.40
2019-03-27T09:37:33.763Z,11.40
2019-03-27T09:40:01.255Z,11.50
2019-03-27T09:42:27.956Z,11.50
2019-03-27T09:44:55.520Z,11.70
2019-03-27T09:47:23.141Z,12.30
2019-03-27T09:49:50.174Z,12.20
2019-03-27T09:52:16.779Z,12.10
2019-03-27T09:54:43.502Z,12.10
2019-03-27T09:57:10.224Z,11.80
2019-03-27T09:59:36.924Z,11.70
2019-03-27T10:02:03.714Z,11.50
2019-03-27T10:04:30.400Z,11.60
2019-03-27T10:06:57.270Z,11.50
2019-03-27T10:09:25.045Z,11.60
2019-03-27T10:11:52.080Z,11.20
2019-03-27T10:14:18.899Z,10.90
2019-03-27T10:16:46.484Z,10.80
2019-03-27T10:19:14.150Z,11.20
2019-03-27T10:21:41.093Z,11.10
2019-03-27T10:24:08.039Z,11.20
2019-03-27T10:26:34.804Z,11.70
2019-03-27T10:29:01.722Z,11.90
2019-03-27T10:31:28.847Z,12.20
2019-03-27T10:33:55.783Z,12.20
2019-03-27T10:36:22.753Z,12.10
2019-03-27T10:38:49.678Z,12.60
2019-03-27T10:41:16.763Z,12.40
2019-03-27T10:43:43.703Z,12.70
2019-03-27T10:46:10.595Z,12.80
2019-03-27T10:48:51.525Z,12.40
2019-03-27T10:51:05.316Z,12.40
2019-03-27T10:53:32.511Z,12.60
2019-03-27T10:55:59.500Z,12.90
2019-03-27T10:58:26.733Z,12.70
2019-03-27T11:00:54.242Z,12.20
2019-03-27T11:03:20.974Z,12.20
2019-03-27T11:05:47.868Z,12.50
2019-03-27T11:08:14.609Z,12.20
2019-03-27T11:10:41.349Z,12.30
2019-03-27T11:13:08.115Z,11.70
2019-03-27T11:15:34.837Z,11.90
2019-03-27T11:18:01.584Z,12.20
2019-03-27T11:20:31.240Z,12.20
2019-03-27T11:22:56.657Z,12.30
2019-03-27T11:25:23.436Z,12.30
2019-03-27T11:27:50.772Z,12.30
2019-03-27T11:30:17.523Z,12.40
2019-03-27T11:32:44.272Z,12.30
2019-03-27T11:35:11.018Z,12.30
2019-03-27T11:37:37.770Z,12.20
2019-03-27T11:40:05.619Z,12.00
2019-03-27T11:42:32.413Z,11.90
2019-03-27T11:44:59.194Z,12.20
2019-03-27T11:47:26.188Z,12.50
2019-03-27T11:49:53.660Z,12.30
2019-03-27T11:52:20.376Z,12.30
2019-03-27T11:54:47.857Z,12.80
2019-03-27T11:57:14.567Z,12.70
2019-03-27T11:59:53.437Z,12.00
2019-03-27T12:02:09.768Z,12.00
2019-03-27T12:04:36.541Z,12.00
2019-03-27T12:07:04.227Z,12.30
2019-03-27T12:09:30.991Z,12.30
2019-03-27T12:15:43.381Z,12.80
2019-03-27T12:18:10.402Z,12.60
2019-03-27T12:20:37.189Z,12.70
2019-03-27T12:23:03.945Z,12.40
2019-03-27T12:25:30.642Z,12.60
2019-03-27T12:27:58.164Z,12.40
2019-03-27T12:30:25.220Z,12.40
2019-03-27T12:32:51.991Z,12.20
2019-03-27T12:35:18.732Z,12.50
2019-03-27T12:37:45.419Z,12.70
2019-03-27T12:40:12.218Z,12.60
2019-03-27T12:42:38.834Z,12.60
2019-03-27T12:45:05.590Z,12.50
2019-03-27T12:47:32.378Z,12.80
2019-03-27T12:49:59.772Z,13.10
2019-03-27T12:52:26.475Z,13.00
2019-03-27T12:54:53.192Z,12.70
2019-03-27T12:57:20.616Z,12.90
2019-03-27T12:59:47.265Z,12.90
2019-03-27T13:02:14.057Z,12.80
2019-03-27T13:04:40.784Z,13.10
2019-03-27T13:07:07.517Z,13.00
2019-03-27T13:09:34.255Z,13.10
2019-03-27T13:12:01.007Z,12.90
2019-03-27T13:14:27.686Z,12.50
2019-03-27T13:16:54.501Z,12.20
2019-03-27T13:19:21.232Z,12.60
2019-03-27T13:21:47.921Z,12.70
2019-03-27T13:24:15.449Z,12.40
2019-03-27T13:26:42.273Z,12.40
2019-03-27T13:29:09.704Z,12.60
2019-03-27T13:31:36.821Z,12.60
2019-03-27T13:34:05.151Z,12.70
2019-03-27T13:36:33.135Z,12.70
2019-03-27T13:38:59.870Z,12.60
2019-03-27T13:41:26.831Z,12.60
2019-03-27T13:43:53.916Z,12.60
2019-03-27T13:46:20.703Z,12.70
2019-03-27T13:48:48.348Z,13.00
2019-03-27T13:51:15.343Z,12.90
2019-03-27T13:53:42.259Z,13.00
2019-03-27T13:56:10.227Z,13.00
2019-03-27T13:58:37.866Z,12.70
2019-03-27T14:01:04.768Z,12.90
2019-03-27T14:03:31.775Z,12.90
2019-03-27T14:05:59.110Z,12.30
2019-03-27T14:08:27.761Z,12.10
2019-03-27T14:10:55.615Z,12.10
2019-03-27T14:13:22.509Z,12.10
2019-03-27T14:15:51.169Z,12.40
2019-03-27T14:18:18.512Z,12.40
2019-03-27T14:20:46.101Z,12.40
2019-03-27T14:23:14.132Z,12.30
2019-03-27T14:25:41.097Z,12.10
2019-03-27T14:28:08.561Z,12.40
2019-03-27T14:30:57.525Z,12.10
2019-03-27T14:33:24.394Z,12.00
2019-03-27T14:35:51.335Z,12.00
2019-03-27T14:38:18.182Z,11.90
2019-03-27T14:40:45.337Z,11.70
2019-03-27T14:43:14.400Z,11.70
2019-03-27T14:45:42.114Z,11.40
2019-03-27T14:48:09.362Z,11.40
2019-03-27T14:50:36.365Z,11.30
2019-03-27T14:53:03.373Z,11.20
2019-03-27T14:55:32.719Z,11.20
2019-03-27T14:57:59.633Z,11.20
2019-03-27T15:00:27.261Z,11.20
2019-03-27T15:02:54.057Z,11.20
2019-03-27T15:05:21.469Z,11.10
2019-03-27T15:07:48.437Z,11.10
2019-03-27T15:10:15.590Z,11.20
2019-03-27T15:12:43.371Z,11.10
2019-03-27T15:15:10.215Z,11.30
2019-03-27T15:17:37.089Z,11.40
2019-03-27T15:20:04.174Z,11.50
2019-03-27T15:22:33.018Z,11.30
2019-03-27T15:25:02.001Z,11.30
2019-03-27T15:27:28.772Z,11.20
2019-03-27T15:29:55.604Z,11.30
2019-03-27T15:32:22.452Z,11.50
2019-03-27T15:34:49.282Z,11.20
2019-03-27T15:37:16.044Z,11.40
2019-03-27T15:39:42.902Z,11.60
2019-03-27T15:42:09.824Z,11.40
2019-03-27T15:44:36.824Z,11.30
2019-03-27T15:47:07.429Z,11.30
2019-03-27T15:49:35.215Z,11.30
2019-03-27T15:52:15.528Z,11.30
2019-03-27T15:54:42.590Z,11.30
2019-03-27T15:57:10.750Z,11.20
2019-03-27T15:59:39.108Z,11.10
2019-03-27T16:02:05.945Z,11.00
2019-03-27T16:04:32.821Z,10.90
2019-03-27T16:06:59.625Z,10.70
2019-03-27T16:09:27.226Z,10.40
2019-03-27T16:11:54.039Z,10.30
2019-03-27T16:14:21.900Z,10.30
2019-03-27T16:17:06.764Z,10.20
2019-03-27T16:19:15.735Z,10.10
2019-03-27T16:21:42.433Z,10.00
2019-03-27T16:24:14.767Z,9.90
2019-03-27T16:26:41.529Z,9.70
2019-03-27T16:29:08.350Z,9.60
2019-03-27T16:31:38.262Z,9.40
2019-03-27T16:34:05.817Z,9.10
2019-03-27T16:36:33.346Z,9.00
2019-03-27T16:39:02.627Z,8.90
2019-03-27T16:41:30.661Z,8.70
2019-03-27T16:43:58.193Z,8.60
2019-03-27T16:46:25.566Z,8.60
2019-03-27T16:48:55.479Z,8.50
2019-03-27T16:51:22.255Z,8.30
2019-03-27T16:53:49.959Z,8.20
2019-03-27T16:56:16.718Z,8.00
2019-03-27T16:58:44.331Z,7.50
2019-03-27T17:01:11.070Z,7.40
2019-03-27T17:03:37.935Z,7.40
2019-03-27T17:06:07.873Z,7.30
2019-03-27T17:08:36.513Z,7.00
2019-03-27T17:11:03.313Z,6.90
2019-03-27T17:13:30.879Z,6.80
2019-03-27T17:15:57.769Z,6.70
2019-03-27T17:18:27.925Z,6.70
2019-03-27T17:20:51.541Z,6.60
2019-03-27T17:23:19.106Z,6.40
2019-03-27T17:25:45.843Z,6.30
2019-03-27T17:28:12.874Z,6.00
2019-03-27T17:30:39.666Z,5.90
2019-03-27T17:33:06.540Z,5.70
2019-03-27T17:35:33.356Z,5.60
2019-03-27T17:38:01.231Z,5.50
2019-03-27T17:40:28.747Z,5.50
2019-03-27T17:42:56.034Z,5.30
2019-03-27T17:45:22.797Z,5.20
2019-03-27T17:47:52.146Z,5.00
2019-03-27T17:50:22.919Z,4.90
2019-03-27T17:52:52.176Z,4.60
2019-03-27T17:55:19.051Z,4.60
2019-03-27T17:57:45.840Z,4.40
2019-03-27T18:00:14.481Z,4.20
2019-03-27T18:02:42.078Z,4.00
2019-03-27T18:05:10.259Z,3.90
2019-03-27T18:07:38.333Z,3.90
2019-03-27T18:10:08.129Z,3.70
2019-03-27T18:12:35.249Z,3.60
2019-03-27T18:15:02.547Z,3.60
2019-03-27T18:17:29.642Z,3.50
2019-03-27T18:19:56.602Z,3.50
2019-03-27T18:22:23.340Z,3.40
2019-03-27T18:24:50.167Z,3.30
2019-03-27T18:27:17.856Z,3.20
2019-03-27T18:29:44.953Z,3.20
2019-03-27T18:32:11.747Z,3.20
2019-03-27T18:34:38.586Z,3.10
2019-03-27T18:37:05.305Z,3.00
2019-03-27T18:39:32.862Z,3.00
2019-03-27T18:41:59.582Z,2.90
2019-03-27T18:44:26.304Z,2.80
2019-03-27T18:46:53.913Z,2.50
2019-03-27T18:49:20.762Z,2.50
2019-03-27T18:51:47.488Z,2.50
2019-03-27T18:54:14.347Z,2.50
2019-03-27T18:56:41.049Z,2.40
2019-03-27T18:59:07.792Z,2.40
2019-03-27T19:01:34.666Z,2.40
2019-03-27T19:04:01.424Z,2.40
2019-03-27T19:06:28.250Z,2.40
2019-03-27T19:08:55.912Z,2.20
2019-03-27T19:11:22.618Z,2.20
2019-03-27T19:13:50.421Z,2.20
2019-03-27T19:16:17.364Z,2.10
2019-03-27T19:18:46.057Z,2.00
2019-03-27T19:21:14.432Z,1.90
2019-03-27T19:23:41.143Z,1.90
2019-03-27T19:26:07.906Z,1.90
2019-03-27T19:28:34.654Z,1.80
2019-03-27T19:31:02.315Z,1.70
2019-03-27T19:33:28.996Z,1.70
2019-03-27T19:35:55.885Z,1.60
2019-03-27T19:38:22.609Z,1.60
2019-03-27T19:40:49.429Z,1.70
2019-03-27T19:43:16.991Z,1.60
2019-03-27T19:45:44.545Z,1.70
2019-03-27T19:48:11.802Z,1.70
2019-03-27T19:50:39.007Z,1.70
2019-03-27T19:53:05.999Z,1.60
2019-03-27T19:55:33.943Z,1.70
2019-03-27T19:58:01.176Z,1.70
2019-03-27T20:00:30.780Z,1.60
2019-03-27T20:02:57.671Z,1.60
2019-03-27T20:05:24.465Z,1.60
2019-03-27T20:07:52.946Z,1.60
2019-03-27T20:10:21.107Z,1.60
2019-03-27T20:12:47.973Z,1.60
2019-03-27T20:15:14.881Z,1.70
2019-03-27T20:17:42.054Z,1.80
2019-03-27T20:20:08.941Z,1.90
2019-03-27T20:22:35.824Z,1.90
2019-03-27T20:25:02.719Z,1.90
2019-03-27T20:27:31.682Z,2.00
2019-03-27T20:29:58.941Z,2.00
2019-03-27T20:32:25.784Z,2.10
2019-03-27T20:34:54.272Z,2.10
2019-03-27T20:37:21.890Z,2.10
2019-03-27T20:39:49.352Z,2.00
2019-03-27T20:42:17.391Z,2.00
2019-03-27T20:44:45.932Z,2.00
2019-03-27T20:47:13.704Z,2.00
2019-03-27T20:49:40.746Z,2.00
2019-03-27T20:52:09.036Z,1.90
2019-03-27T20:54:37.508Z,1.70
2019-03-27T20:57:06.739Z,1.70
2019-03-27T20:59:34.626Z,1.70
2019-03-27T21:02:01.398Z,1.70
2019-03-27T21:04:28.302Z,1.70
2019-03-27T21:06:56.774Z,1.70
2019-03-27T21:09:24.252Z,1.70
2019-03-27T21:11:51.214Z,1.70
2019-03-27T21:14:17.942Z,1.60
2019-03-27T21:16:45.309Z,1.60
2019-03-27T21:19:12.982Z,1.40
2019-03-27T21:21:41.890Z,1.40
2019-03-27T21:24:07.534Z,1.10
2019-03-27T21:26:35.152Z,0.80
2019-03-27T21:29:02.026Z,0.80
2019-03-27T21:31:28.778Z,0.70
2019-03-27T21:33:57.707Z,0.60
2019-03-27T21:36:23.130Z,0.60
2019-03-27T21:38:50.727Z,0.50
2019-03-27T21:41:17.480Z,0.50
2019-03-27T21:43:45.216Z,0.50
2019-03-27T21:46:12.061Z,0.50
2019-03-27T21:48:38.800Z,0.40
2019-03-27T21:51:05.744Z,0.30
2019-03-27T21:53:32.688Z,0.30
2019-03-27T21:55:59.397Z,0.30
2019-03-27T21:58:26.168Z,0.30
2019-03-27T22:00:52.871Z,0.30
2019-03-27T22:03:20.322Z,0.20
2019-03-27T22:05:47.109Z,0.20
2019-03-27T22:08:13.847Z,0.10
2019-03-27T22:10:40.690Z,0.10
2019-03-27T22:13:08.591Z,0.20
2019-03-27T22:15:35.711Z,0.10
2019-03-27T22:18:03.472Z,0.30
2019-03-27T22:20:30.417Z,0.30
2019-03-27T22:22:57.193Z,0.30
2019-03-27T22:25:35.436Z,0.40
2019-03-27T22:27:51.669Z,0.40
2019-03-27T22:30:18.460Z,0.40
2019-03-27T22:32:45.972Z,0.40
2019-03-27T22:35:13.118Z,0.40
2019-03-27T22:37:40.375Z,0.50
2019-03-27T22:40:07.317Z,0.60
2019-03-27T22:42:35.579Z,0.60
2019-03-27T22:45:02.537Z,0.60
2019-03-27T22:47:29.381Z,0.60
2019-03-27T22:49:56.120Z,0.60
2019-03-27T22:52:22.848Z,0.60
2019-03-27T22:54:50.666Z,0.60
2019-03-27T22:57:17.371Z,0.70
2019-03-27T22:59:44.313Z,0.70
2019-03-27T23:02:11.031Z,0.80
2019-03-27T23:04:37.895Z,0.70
2019-03-27T23:07:04.739Z,0.70
2019-03-27T23:09:31.581Z,0.70
2019-03-27T23:11:58.345Z,0.70
2019-03-27T23:14:25.266Z,0.70
2019-03-27T23:16:52.003Z,0.60
2019-03-27T23:19:18.857Z,0.60
2019-03-27T23:21:45.691Z,0.50
2019-03-27T23:24:12.532Z,0.50
2019-03-27T23:26:39.288Z,0.50
2019-03-27T23:29:06.018Z,0.40
2019-03-27T23:31:32.743Z,0.40
2019-03-27T23:34:00.524Z,0.50
2019-03-27T23:36:26.648Z,0.50
2019-03-27T23:38:53.387Z,0.40
2019-03-27T23:41:20.331Z,0.40
2019-03-27T23:43:47.277Z,0.30
2019-03-27T23:46:13.966Z,0.30
2019-03-27T23:48:40.860Z,0.20
2019-03-27T23:51:07.808Z,0.20
2019-03-27T23:53:34.651Z,0.10
2019-03-27T23:56:01.491Z,0.10
2019-03-27T23:58:28.439Z,0.00
